createdAt,value
2018-05-06T10:43:19.749Z,45.40
2018-05-06T10:46:23.107Z,47.40
2018-05-06T10:49:27.588Z,49.00
2018-05-06T10:52:30.916Z,49.70
2018-05-06T10:55:35.402Z,50.80
2018-05-06T10:58:38.713Z,51.40
2018-05-06T11:01:42.059Z,52.60
2018-05-06T11:04:45.434Z,52.50
2018-05-06T11:07:49.577Z,53.00
2018-05-06T11:10:52.902Z,53.10
2018-05-06T11:13:56.378Z,52.90
2018-05-06T11:16:59.720Z,52.10
2018-05-06T11:20:03.064Z,52.50
2018-05-06T11:23:06.369Z,52.20
2018-05-06T11:26:09.841Z,50.90
2018-05-06T11:29:13.221Z,51.00
2018-05-06T11:32:16.567Z,51.00
2018-05-06T11:35:19.913Z,51.30
2018-05-06T11:38:23.269Z,51.60
2018-05-06T11:41:26.630Z,50.90
2018-05-06T11:44:29.986Z,50.60
2018-05-06T11:47:33.319Z,51.10
2018-05-06T11:50:36.657Z,50.80
2018-05-06T11:53:40.778Z,50.70
2018-05-06T11:56:44.222Z,50.30
2018-05-06T11:59:47.605Z,50.50
2018-05-06T12:02:50.939Z,50.60
2018-05-06T12:05:54.445Z,49.80
2018-05-06T12:08:58.643Z,50.50
2018-05-06T12:12:01.993Z,50.20
2018-05-06T12:15:05.429Z,50.70
2018-05-06T12:18:08.743Z,50.60
2018-05-06T12:21:12.147Z,50.20
2018-05-06T12:24:15.533Z,49.20
2018-05-06T12:27:18.948Z,48.80
2018-05-06T12:30:22.257Z,48.30
2018-05-06T12:33:25.721Z,47.60
2018-05-06T12:36:29.029Z,46.90
2018-05-06T12:39:32.389Z,47.30
2018-05-06T12:42:35.782Z,47.30
2018-05-06T12:45:39.255Z,47.60
2018-05-06T12:48:42.589Z,47.20
2018-05-06T12:51:46.775Z,46.60
2018-05-06T12:54:50.887Z,46.70
2018-05-06T12:57:54.273Z,46.80
2018-05-06T13:00:57.602Z,47.80
2018-05-06T13:04:01.755Z,48.40
2018-05-06T13:07:05.065Z,48.40
2018-05-06T13:10:08.418Z,48.60
2018-05-06T13:13:12.505Z,48.70
2018-05-06T13:16:15.848Z,48.60
2018-05-06T13:19:19.151Z,48.50
2018-05-06T13:22:22.489Z,47.90
2018-05-06T13:25:25.814Z,47.70
2018-05-06T13:28:29.166Z,48.00
2018-05-06T13:31:32.483Z,47.50
2018-05-06T13:34:35.834Z,47.90
2018-05-06T13:37:39.995Z,47.90
2018-05-06T13:40:43.326Z,47.90
2018-05-06T13:43:46.642Z,48.00
2018-05-06T13:46:50.812Z,48.00
2018-05-06T13:49:54.290Z,48.00
2018-05-06T13:52:57.617Z,47.40
2018-05-06T13:56:00.938Z,47.60
2018-05-06T13:59:04.325Z,48.00
2018-05-06T14:02:07.724Z,48.00
2018-05-06T14:05:11.118Z,47.50
2018-05-06T14:08:14.440Z,46.20
2018-05-06T14:11:17.810Z,46.80
2018-05-06T14:14:21.135Z,46.50
2018-05-06T14:17:24.483Z,47.60
2018-05-06T14:20:27.824Z,46.50
2018-05-06T14:23:31.168Z,44.80
2018-05-06T14:26:34.506Z,44.90
2018-05-06T14:29:37.900Z,44.00
2018-05-06T14:32:41.312Z,44.10
2018-05-06T14:35:44.714Z,42.20
2018-05-06T14:38:48.098Z,41.50
2018-05-06T14:41:52.448Z,40.80
2018-05-06T14:44:57.282Z,40.30
2018-05-06T14:48:15.636Z,40.80
2018-05-06T14:51:19.072Z,41.00
2018-05-06T14:54:22.509Z,41.10
2018-05-06T14:57:25.835Z,40.70
2018-05-06T15:00:29.213Z,41.00
2018-05-06T15:03:32.620Z,41.30
2018-05-06T15:06:35.967Z,40.50
2018-05-06T15:09:39.295Z,39.30
2018-05-06T15:12:42.663Z,39.40
2018-05-06T15:15:46.026Z,40.40
2018-05-06T15:18:49.376Z,42.40
2018-05-06T15:21:52.690Z,42.60
2018-05-06T15:24:56.039Z,42.00
2018-05-06T15:28:00.125Z,41.30
2018-05-06T15:31:03.493Z,41.30
2018-05-06T15:34:06.818Z,41.80
2018-05-06T15:37:10.170Z,41.60
2018-05-06T15:40:13.570Z,41.80
2018-05-06T15:43:17.041Z,41.70
2018-05-06T15:46:20.418Z,41.40
2018-05-06T15:49:23.749Z,42.10
2018-05-06T15:52:27.838Z,42.20
2018-05-06T15:55:31.184Z,42.20
2018-05-06T15:58:34.526Z,41.70
2018-05-06T16:01:37.945Z,41.80
2018-05-06T16:04:41.270Z,41.80
2018-05-06T16:07:45.394Z,41.70
2018-05-06T16:10:49.480Z,42.10
2018-05-06T16:13:52.867Z,42.10
2018-05-06T16:16:56.207Z,42.00
2018-05-06T16:19:59.562Z,42.40
2018-05-06T16:23:02.989Z,42.20
2018-05-06T16:26:07.582Z,41.90
2018-05-06T16:29:10.896Z,42.50
2018-05-06T16:32:14.233Z,42.50
2018-05-06T16:35:18.305Z,42.20
2018-05-06T16:38:21.658Z,42.20
2018-05-06T16:41:25.037Z,41.70
2018-05-06T16:44:29.149Z,42.80
2018-05-06T16:47:33.229Z,42.50
2018-05-06T16:50:36.685Z,42.50
2018-05-06T16:53:40.068Z,42.30
2018-05-06T16:56:44.251Z,41.80
2018-05-06T16:59:47.566Z,41.70
2018-05-06T17:02:50.968Z,41.80
2018-05-06T17:05:54.307Z,41.70
2018-05-06T17:08:57.752Z,42.00
2018-05-06T17:12:01.170Z,42.20
2018-05-06T17:15:04.564Z,42.10
2018-05-06T17:18:07.887Z,41.70
2018-05-06T17:21:12.015Z,42.20
2018-05-06T17:24:15.368Z,42.10
2018-05-06T17:27:18.795Z,42.70
2018-05-06T17:30:22.966Z,45.70
2018-05-06T17:33:26.343Z,45.60
2018-05-06T17:36:29.688Z,46.90
2018-05-06T17:39:33.188Z,48.00
2018-05-06T17:42:36.597Z,48.80
2018-05-06T17:45:39.964Z,49.70
2018-05-06T17:48:43.330Z,50.30
2018-05-06T17:51:46.802Z,51.10
2018-05-06T17:54:50.135Z,51.70
2018-05-06T17:57:53.584Z,52.00
2018-05-06T18:00:56.937Z,52.40
2018-05-06T18:04:00.300Z,52.80
2018-05-06T18:07:03.627Z,53.00
2018-05-06T18:10:07.098Z,53.40
2018-05-06T18:13:10.440Z,54.10
2018-05-06T18:16:13.809Z,54.90
2018-05-06T18:19:18.278Z,54.70
2018-05-06T18:22:21.617Z,55.30
2018-05-06T18:25:25.031Z,55.90
2018-05-06T18:28:29.515Z,56.50
2018-05-06T18:31:32.828Z,57.20
2018-05-06T18:34:37.713Z,58.50
2018-05-06T18:37:41.035Z,58.40
2018-05-06T18:40:44.410Z,59.10
2018-05-06T18:43:47.746Z,59.70
2018-05-06T18:46:51.124Z,60.00
2018-05-06T18:49:54.505Z,60.50
2018-05-06T18:52:57.964Z,61.00
2018-05-06T18:56:01.304Z,61.40
2018-05-06T18:59:04.767Z,61.80
2018-05-06T19:02:08.120Z,62.00
2018-05-06T19:05:11.484Z,62.40
2018-05-06T19:08:15.682Z,63.10
2018-05-06T19:11:19.170Z,63.10
2018-05-06T19:14:22.502Z,63.40
2018-05-06T19:17:26.616Z,64.80
2018-05-06T19:20:30.820Z,64.50
2018-05-06T19:23:34.183Z,64.20
2018-05-06T19:26:37.542Z,64.30
2018-05-06T19:29:41.866Z,64.80
2018-05-06T19:32:45.166Z,64.80
2018-05-06T19:35:48.492Z,65.10
2018-05-06T19:38:51.984Z,65.40
2018-05-06T19:41:55.363Z,65.60
2018-05-06T19:44:59.461Z,66.10
2018-05-06T19:48:02.818Z,66.10
2018-05-06T19:51:06.150Z,66.30
2018-05-06T19:54:09.753Z,66.70
2018-05-06T19:57:13.110Z,66.40
2018-05-06T20:00:16.467Z,66.30
2018-05-06T20:03:19.838Z,66.20
2018-05-06T20:06:23.239Z,66.20
2018-05-06T20:09:26.577Z,65.80
2018-05-06T20:12:30.690Z,65.10
2018-05-06T20:15:35.283Z,65.00
2018-05-06T20:18:39.129Z,65.60
2018-05-06T20:21:43.615Z,65.10
2018-05-06T20:24:47.839Z,64.90
2018-05-06T20:27:51.251Z,64.80
2018-05-06T20:30:54.623Z,64.50
2018-05-06T20:33:57.945Z,64.70
2018-05-06T20:37:01.352Z,64.80
2018-05-06T20:40:04.730Z,65.10
2018-05-06T20:43:08.072Z,65.10
2018-05-06T20:46:12.312Z,65.70
2018-05-06T20:49:15.665Z,65.70
2018-05-06T20:52:19.764Z,65.80
2018-05-06T20:55:23.214Z,65.80
2018-05-06T20:58:26.510Z,66.30
2018-05-06T21:01:30.639Z,66.80
2018-05-06T21:04:33.952Z,66.80
2018-05-06T21:07:37.374Z,67.30
2018-05-06T21:10:40.691Z,67.50
2018-05-06T21:13:44.048Z,67.90
2018-05-06T21:16:47.363Z,67.80
2018-05-06T21:19:50.765Z,68.20
2018-05-06T21:22:54.296Z,67.80
2018-05-06T21:25:57.731Z,67.40
2018-05-06T21:29:01.054Z,67.70
2018-05-06T21:32:04.406Z,67.80
2018-05-06T21:35:08.497Z,68.40
2018-05-06T21:38:11.849Z,68.20
2018-05-06T21:41:15.157Z,68.40
2018-05-06T21:44:18.585Z,68.40
2018-05-06T21:47:21.998Z,68.30
2018-05-06T21:50:25.348Z,68.00
2018-05-06T21:53:28.677Z,68.20
2018-05-06T21:56:32.039Z,68.00
2018-05-06T21:59:35.365Z,68.00
2018-05-06T22:02:38.736Z,68.20
2018-05-06T22:05:42.062Z,68.20
2018-05-06T22:08:45.403Z,68.30
2018-05-06T22:11:48.806Z,68.40
2018-05-06T22:14:53.016Z,69.10
2018-05-06T22:17:56.415Z,68.20
2018-05-06T22:20:59.828Z,68.60
2018-05-06T22:24:03.928Z,68.70
2018-05-06T22:27:07.342Z,68.70
2018-05-06T22:30:10.666Z,69.00
2018-05-06T22:33:14.004Z,68.80
2018-05-06T22:36:17.409Z,68.90
2018-05-06T22:39:20.934Z,69.20
2018-05-06T22:42:24.327Z,69.50
2018-05-06T22:45:27.665Z,69.60
2018-05-06T22:48:31.016Z,69.20
2018-05-06T22:51:34.436Z,69.10
2018-05-06T22:54:37.833Z,68.90
2018-05-06T22:57:41.176Z,69.60
2018-05-06T23:00:44.536Z,69.30
2018-05-06T23:03:47.963Z,70.00
2018-05-06T23:06:51.299Z,70.70
2018-05-06T23:09:54.728Z,71.70
2018-05-06T23:12:58.840Z,74.10
2018-05-06T23:16:02.189Z,73.60
2018-05-06T23:19:05.651Z,74.30
2018-05-06T23:22:09.770Z,75.80
2018-05-06T23:25:13.198Z,75.60
2018-05-06T23:28:16.556Z,76.50
2018-05-06T23:31:19.904Z,76.80
2018-05-06T23:34:23.277Z,77.00
2018-05-06T23:37:27.392Z,78.10
2018-05-06T23:40:31.498Z,78.40
2018-05-06T23:43:34.875Z,78.40
2018-05-06T23:46:38.288Z,78.80
2018-05-06T23:49:41.726Z,78.90
2018-05-06T23:52:45.911Z,79.60
2018-05-06T23:55:49.314Z,79.60
2018-05-06T23:58:52.644Z,80.00
